Open Full Screen Window  High Contrast Mode
Wind Gusting 00 knots
06
December 02, 2016 5:14 PM EST
Weather Information
Wind Direction
  270 °
Wind Speed
  06 kt (7 mph)
Wind Gust
  00 kt (0 mph)
Altimeter
30.23 in
Visibility
10 SM
Temperature
04° C
39° F
Dewpoint
-01° C
30° F
Humidity
70%
1hr Rain Fall
00.00 in.
24hr Rain Fall
00.00 in.
Sky Condition
Overcast @ 2,900 ft
MVFR

METAR KI69 022214Z AUTO 27006KT 10SM OVC029 04/M01 A3023 RMK AO2 T00401011

*Background is not an actual portrayal of the airport.